Terminal Aerodrome Forecast
Issued by NWS

Home | Current Version | Previous Version | Text Only | Print | Product List | Glossary On
Versions: 1 2 3 4 5 6 7 8 9 10 11 12 13 14 15 16 17 18 19 20 21 22 23 24 25 26
000
FTUS44 KOUN 251726
TAFHBR
TAF
KHBR 251726Z 2518/2618 19018G25KT P6SM -RA SCT025 OVC060
      TEMPO 2518/2521 VRB45KT 2SM +TSRA SCT008 OVC015CB
     FM252200 17012KT P6SM FEW012 BKN100
     FM260900 18007KT 4SM BR BKN015
     FM261500 17009KT P6SM BKN030=

USA.gov is the U.S. government's official web portal to all federal, state and local government web resources and services.